Liberty of The Seas — C6VQ8 — position and weather

sailwx.info

Track history (hours):
 
Tides and Currents Weather Stations Pressure Air Temp Water Temp Dewpoint Dewpoint Depression Visibility Wind Speed Wind Dir Waves Ship Positions

Liberty of The Seas

Last reported at 2018-May-23 10:00 UTC. Time now 2018-May-24 09:37 UTC.
Position N 16°48' W 086°36'.

Type: Passenger vessel. MMSI: 309436000.

Wind from 130 at 13 knots

Barometer 1009.0 mb
Air temperature 27.0 ° C
Visibility: greater than 10.8 NM
Dewpoint 25.6 ° C
Water temperature 28.0 ° C

Date/timePositionNaut miles runAvg speedWind from/ knotsBaromVisibWave heightAir tempDewpointWater temp
2018-May-23 10:00N 16°48' W 086°36'32513.5 130 / 131009.010.8 27.025.628.0
2018-May-22 10:00N 22°12' W 087°00'58916.6 100 / 211011.010.8 26.024.628.0
2018-May-20 22:25N 29°15' W 094°35'410.8
2018-May-20 22:00N 29°18' W 094°38'612.8
2018-May-20 21:30N 29°21' W 094°45'3 6.6
2018-May-20 21:00N 29°19' W 094°48'0 0.0
2018-May-20 20:28N 29°19' W 094°48'0 0.0
2018-May-20 19:58N 29°19' W 094°48'0 0.0
2018-May-20 19:19N 29°19' W 094°48'0 0.0
2018-May-20 18:58N 29°19' W 094°48'0 0.0
2018-May-20 18:28N 29°19' W 094°48'0 0.0
2018-May-20 17:58N 29°19' W 094°48'0 0.0
2018-May-20 17:28N 29°19' W 094°48'0 0.0
2018-May-20 16:58N 29°19' W 094°48'0 0.0
2018-May-20 16:28N 29°19' W 094°48'0 0.0
2018-May-20 15:58N 29°19' W 094°48'0 0.0
2018-May-20 15:28N 29°19' W 094°48'0 0.0
2018-May-20 14:58N 29°19' W 094°48'0 0.0
2018-May-20 14:28N 29°19' W 094°48'0 0.0
2018-May-20 13:58N 29°19' W 094°48'0 0.0
2018-May-20 13:28N 29°19' W 094°48'0 0.0
2018-May-20 12:58N 29°19' W 094°48'0 0.0
2018-May-20 12:25N 29°19' W 094°48'0 0.0
2018-May-20 11:58N 29°19' W 094°48'0 0.0
2018-May-20 11:28N 29°19' W 094°48'0 0.1
2018-May-20 11:00N 29°19' W 094°48'1 2.5
2018-May-20 10:30N 29°19' W 094°47'4 8.6
2018-May-20 10:00N 29°21' W 094°42'813.7
2018-May-20 09:24N 29°16' W 094°34'  
2018-May-15 21:51N 20°34' W 086°57'515.7
2018-May-15 21:30N 20°29' W 086°59'0 0.4
2018-May-15 20:58N 20°29' W 086°59'0 0.0
2018-May-15 20:28N 20°29' W 086°59'0 0.0
2018-May-15 19:58N 20°29' W 086°59'0 0.0
2018-May-15 19:22N 20°29' W 086°59'0 0.0
2018-May-15 18:58N 20°29' W 086°59'0 0.0
2018-May-15 18:28N 20°29' W 086°59'0 0.0
2018-May-15 17:58N 20°29' W 086°59'0 0.0
2018-May-15 17:28N 20°29' W 086°59'0 0.0
2018-May-15 16:58N 20°29' W 086°59'0 0.0
2018-May-15 16:28N 20°29' W 086°59'0 0.0
2018-May-15 15:58N 20°29' W 086°59'0 0.0
2018-May-15 15:28N 20°29' W 086°59'0 0.0
2018-May-15 14:58N 20°29' W 086°59'0 0.0
2018-May-15 14:25N 20°29' W 086°59'0 0.0
2018-May-15 13:55N 20°29' W 086°59'0 0.0
2018-May-15 13:28N 20°29' W 086°59'0 0.0
2018-May-15 12:58N 20°29' W 086°59'0 0.0
2018-May-15 12:28N 20°29' W 086°59'0 0.1
2018-May-15 12:00N 20°29' W 086°59'1 1.9
2018-May-15 11:30N 20°30' W 086°58'511.0
2018-May-15 11:00N 20°35' W 086°56'63518.6
2018-May-14 00:49N 28°57' W 094°04'616.7
2018-May-14 00:26N 29°01' W 094°10'817.1
2018-May-14 00:00N 29°05' W 094°17'816.7
2018-May-13 23:30N 29°09' W 094°25'915.7
2018-May-13 22:56N 29°14' W 094°33'511.7
2018-May-13 22:31N 29°18' W 094°37'713.6
2018-May-13 22:00N 29°21' W 094°44'4 7.9
2018-May-13 21:31N 29°19' W 094°48'0 0.0
2018-May-13 21:00N 29°19' W 094°48'0 0.0
2018-May-13 20:30N 29°19' W 094°48'0 0.0
2018-May-13 20:00N 29°19' W 094°48'0 0.0
2018-May-13 19:30N 29°19' W 094°48'0 0.0
2018-May-13 19:00N 29°19' W 094°48'0 0.0
2018-May-13 18:30N 29°19' W 094°48'0 0.0
2018-May-13 18:00N 29°19' W 094°48'0 0.0
2018-May-13 17:30N 29°19' W 094°48'0 0.0
2018-May-13 17:00N 29°19' W 094°48'0 0.0
2018-May-13 16:30N 29°19' W 094°48'0 0.0
2018-May-13 16:00N 29°19' W 094°48'0 0.0
2018-May-13 15:30N 29°19' W 094°48'0 0.0
2018-May-13 15:00N 29°19' W 094°48'0 0.0
2018-May-13 14:30N 29°19' W 094°48'0 0.0
2018-May-13 14:00N 29°19' W 094°48'0 0.0
2018-May-13 13:30N 29°19' W 094°48'0 0.0
2018-May-13 13:00N 29°19' W 094°48'0 0.0
2018-May-13 12:30N 29°19' W 094°48'0 0.0
2018-May-13 12:00N 29°19' W 094°48'0 0.0
2018-May-13 11:30N 29°19' W 094°48'0 0.2
2018-May-13 11:00N 29°19' W 094°48'1 3.0
2018-May-13 10:30N 29°20' W 094°47'611.4
2018-May-13 10:01N 29°20' W 094°40'  
Track history (hours):
 
Tides and Currents Weather Stations Pressure Air Temp Water Temp Dewpoint Dewpoint Depression Visibility Wind Speed Wind Dir Waves Ship Positions

Liberty of The Seas

Last reported at 2018-May-23 10:00 UTC. Time now 2018-May-24 09:37 UTC.
Position N 16°48' W 086°36'.

Type: Passenger vessel. MMSI: 309436000.

Wind from 130 at 13 knots

Barometer 1009.0 mb
Air temperature 27.0 ° C
Visibility: greater than 10.8 NM
Dewpoint 25.6 ° C
Water temperature 28.0 ° C

Date/timePositionNaut miles runAvg speedWind from/ knotsBaromVisibWave heightAir tempDewpointWater temp
2018-May-23 10:00N 16°48' W 086°36'32513.5 130 / 131009.010.8 27.025.628.0
2018-May-22 10:00N 22°12' W 087°00'58916.6 100 / 211011.010.8 26.024.628.0
2018-May-20 22:25N 29°15' W 094°35'410.8
2018-May-20 22:00N 29°18' W 094°38'612.8
2018-May-20 21:30N 29°21' W 094°45'3 6.6
2018-May-20 21:00N 29°19' W 094°48'0 0.0
2018-May-20 20:28N 29°19' W 094°48'0 0.0
2018-May-20 19:58N 29°19' W 094°48'0 0.0
2018-May-20 19:19N 29°19' W 094°48'0 0.0
2018-May-20 18:58N 29°19' W 094°48'0 0.0
2018-May-20 18:28N 29°19' W 094°48'0 0.0
2018-May-20 17:58N 29°19' W 094°48'0 0.0
2018-May-20 17:28N 29°19' W 094°48'0 0.0
2018-May-20 16:58N 29°19' W 094°48'0 0.0
2018-May-20 16:28N 29°19' W 094°48'0 0.0
2018-May-20 15:58N 29°19' W 094°48'0 0.0
2018-May-20 15:28N 29°19' W 094°48'0 0.0
2018-May-20 14:58N 29°19' W 094°48'0 0.0
2018-May-20 14:28N 29°19' W 094°48'0 0.0
2018-May-20 13:58N 29°19' W 094°48'0 0.0
2018-May-20 13:28N 29°19' W 094°48'0 0.0
2018-May-20 12:58N 29°19' W 094°48'0 0.0
2018-May-20 12:25N 29°19' W 094°48'0 0.0
2018-May-20 11:58N 29°19' W 094°48'0 0.0
2018-May-20 11:28N 29°19' W 094°48'0 0.1
2018-May-20 11:00N 29°19' W 094°48'1 2.5
2018-May-20 10:30N 29°19' W 094°47'4 8.6
2018-May-20 10:00N 29°21' W 094°42'813.7
2018-May-20 09:24N 29°16' W 094°34'  
2018-May-15 21:51N 20°34' W 086°57'515.7
2018-May-15 21:30N 20°29' W 086°59'0 0.4
2018-May-15 20:58N 20°29' W 086°59'0 0.0
2018-May-15 20:28N 20°29' W 086°59'0 0.0
2018-May-15 19:58N 20°29' W 086°59'0 0.0
2018-May-15 19:22N 20°29' W 086°59'0 0.0
2018-May-15 18:58N 20°29' W 086°59'0 0.0
2018-May-15 18:28N 20°29' W 086°59'0 0.0
2018-May-15 17:58N 20°29' W 086°59'0 0.0
2018-May-15 17:28N 20°29' W 086°59'0 0.0
2018-May-15 16:58N 20°29' W 086°59'0 0.0
2018-May-15 16:28N 20°29' W 086°59'0 0.0
2018-May-15 15:58N 20°29' W 086°59'0 0.0
2018-May-15 15:28N 20°29' W 086°59'0 0.0
2018-May-15 14:58N 20°29' W 086°59'0 0.0
2018-May-15 14:25N 20°29' W 086°59'0 0.0
2018-May-15 13:55N 20°29' W 086°59'0 0.0
2018-May-15 13:28N 20°29' W 086°59'0 0.0
2018-May-15 12:58N 20°29' W 086°59'0 0.0
2018-May-15 12:28N 20°29' W 086°59'0 0.1
2018-May-15 12:00N 20°29' W 086°59'1 1.9
2018-May-15 11:30N 20°30' W 086°58'511.0
2018-May-15 11:00N 20°35' W 086°56'63518.6
2018-May-14 00:49N 28°57' W 094°04'616.7
2018-May-14 00:26N 29°01' W 094°10'817.1
2018-May-14 00:00N 29°05' W 094°17'816.7
2018-May-13 23:30N 29°09' W 094°25'915.7
2018-May-13 22:56N 29°14' W 094°33'511.7
2018-May-13 22:31N 29°18' W 094°37'713.6
2018-May-13 22:00N 29°21' W 094°44'4 7.9
2018-May-13 21:31N 29°19' W 094°48'0 0.0
2018-May-13 21:00N 29°19' W 094°48'0 0.0
2018-May-13 20:30N 29°19' W 094°48'0 0.0
2018-May-13 20:00N 29°19' W 094°48'0 0.0
2018-May-13 19:30N 29°19' W 094°48'0 0.0
2018-May-13 19:00N 29°19' W 094°48'0 0.0
2018-May-13 18:30N 29°19' W 094°48'0 0.0
2018-May-13 18:00N 29°19' W 094°48'0 0.0
2018-May-13 17:30N 29°19' W 094°48'0 0.0
2018-May-13 17:00N 29°19' W 094°48'0 0.0
2018-May-13 16:30N 29°19' W 094°48'0 0.0
2018-May-13 16:00N 29°19' W 094°48'0 0.0
2018-May-13 15:30N 29°19' W 094°48'0 0.0
2018-May-13 15:00N 29°19' W 094°48'0 0.0
2018-May-13 14:30N 29°19' W 094°48'0 0.0
2018-May-13 14:00N 29°19' W 094°48'0 0.0
2018-May-13 13:30N 29°19' W 094°48'0 0.0
2018-May-13 13:00N 29°19' W 094°48'0 0.0
2018-May-13 12:30N 29°19' W 094°48'0 0.0
2018-May-13 12:00N 29°19' W 094°48'0 0.0
2018-May-13 11:30N 29°19' W 094°48'0 0.2
2018-May-13 11:00N 29°19' W 094°48'1 3.0
2018-May-13 10:30N 29°20' W 094°47'611.4
2018-May-13 10:01N 29°20' W 094°40'  

Dump ship's entire track history